Time;durP1;ratioP1;P1;durP2;ratioP2;P2;SDS_P1;SDS_P2;PMS_P1;PMS_P2;Temp;Humidity;BMP_temperature;BMP_pressure;BME280_temperature;BME280_humidity;BME280_pressure;Samples;Min_cycle;Max_cycle;Signal;HPM_P1;HPM_P2
2023/07/15 00:00:47;;;;;;;8.95;3.95;;;19.30;99.90;;;;;;5003109;28;20517;-82
2023/07/15 00:03:15;;;;;;;9.05;3.70;;;19.30;99.90;;;;;;5021824;28;20063;-81
2023/07/15 00:05:41;;;;;;;8.93;3.88;;;19.30;99.90;;;;;;5009384;28;20502;-81
2023/07/15 00:08:08;;;;;;;8.85;3.85;;;19.30;99.90;;;;;;5033390;28;20144;-81
2023/07/15 00:10:36;;;;;;;8.52;3.95;;;19.30;99.90;;;;;;5004797;28;20040;-81
2023/07/15 00:13:02;;;;;;;11.13;4.28;;;19.30;99.90;;;;;;5006015;28;20044;-82
2023/07/15 00:15:28;;;;;;;10.82;3.70;;;19.30;99.90;;;;;;4993229;27;20044;-82
2023/07/15 00:17:54;;;;;;;9.55;4.00;;;19.30;99.90;;;;;;5002907;28;20125;-82
2023/07/15 00:20:20;;;;;;;9.75;3.85;;;19.30;99.90;;;;;;4979765;27;20147;-82
2023/07/15 00:22:46;;;;;;;10.48;3.90;;;19.30;99.90;;;;;;5006095;28;20036;-82
2023/07/15 00:25:18;;;;;;;9.98;3.45;;;19.30;99.90;;;;;;5016684;28;20037;-82
2023/07/15 00:27:44;;;;;;;9.10;3.55;;;19.30;99.90;;;;;;5027812;28;20104;-82
2023/07/15 00:30:15;;;;;;;9.30;3.38;;;19.30;99.90;;;;;;5017462;28;20045;-82
2023/07/15 00:32:46;;;;;;;10.70;3.90;;;19.30;99.90;;;;;;5021642;28;20064;-82
2023/07/15 00:35:25;;;;;;;9.82;4.28;;;19.30;99.90;;;;;;5005992;28;20056;-82
2023/07/15 00:37:51;;;;;;;9.90;3.55;;;19.30;99.90;;;;;;5004168;28;20188;-82
2023/07/15 00:40:19;;;;;;;10.13;3.83;;;19.30;99.90;;;;;;5005900;28;20074;-82
2023/07/15 00:43:10;;;;;;;8.95;3.65;;;19.30;99.90;;;;;;5004836;28;20071;-82
2023/07/15 00:45:35;;;;;;;11.13;3.42;;;19.30;99.90;;;;;;5021260;28;20112;-82
2023/07/15 00:48:11;;;;;;;11.10;3.80;;;19.30;99.90;;;;;;5007417;28;20136;-82
2023/07/15 00:50:42;;;;;;;9.82;3.47;;;19.30;99.90;;;;;;5009196;27;20033;-82
2023/07/15 00:53:10;;;;;;;9.60;3.65;;;19.30;99.90;;;;;;5003731;28;20162;-82
2023/07/15 00:55:36;;;;;;;11.07;3.65;;;19.20;99.90;;;;;;5019885;27;20053;-82
2023/07/15 00:58:03;;;;;;;10.02;3.60;;;19.20;99.90;;;;;;5006057;28;20080;-82
2023/07/15 01:00:30;;;;;;;9.90;3.88;;;19.20;99.90;;;;;;5002508;28;20072;-82
2023/07/15 01:02:56;;;;;;;8.98;3.75;;;19.20;99.90;;;;;;5029656;28;20043;-82
2023/07/15 01:05:22;;;;;;;10.85;4.15;;;19.20;99.90;;;;;;5086131;28;20041;-82
2023/07/15 01:07:48;;;;;;;9.77;3.75;;;19.20;99.90;;;;;;5004329;28;20390;-82
2023/07/15 01:10:13;;;;;;;10.30;3.80;;;19.20;99.90;;;;;;5025714;27;20115;-82
2023/07/15 01:12:39;;;;;;;8.70;3.55;;;19.20;99.90;;;;;;5023561;27;21149;-82
2023/07/15 01:15:06;;;;;;;10.40;4.03;;;19.20;99.90;;;;;;5002839;28;20051;-82
2023/07/15 01:17:32;;;;;;;9.77;3.75;;;19.20;99.90;;;;;;5002022;28;20037;-82
2023/07/15 01:19:58;;;;;;;9.73;3.60;;;19.20;99.90;;;;;;5024161;27;20039;-82
2023/07/15 01:22:26;;;;;;;10.65;3.70;;;19.20;99.90;;;;;;4994472;28;20037;-82
2023/07/15 01:24:51;;;;;;;9.05;3.53;;;19.20;99.90;;;;;;5007108;27;20068;-82
2023/07/15 01:27:18;;;;;;;10.70;3.50;;;19.20;99.90;;;;;;5022405;28;20078;-82
2023/07/15 01:29:44;;;;;;;10.98;3.40;;;19.90;99.90;;;;;;4992590;28;20120;-82
2023/07/15 01:32:10;;;;;;;8.63;3.35;;;19.20;99.90;;;;;;5030354;27;20132;-82
2023/07/15 01:34:36;;;;;;;12.38;3.58;;;19.20;99.90;;;;;;5003873;28;20494;-82
2023/07/15 01:37:03;;;;;;;11.98;3.65;;;19.20;99.90;;;;;;4992055;28;20182;-81
2023/07/15 01:39:29;;;;;;;8.38;3.20;;;19.30;99.90;;;;;;5022465;28;20036;-82
2023/07/15 01:41:55;;;;;;;8.73;3.40;;;19.30;99.90;;;;;;5026447;28;20040;-81
2023/07/15 01:44:23;;;;;;;9.95;3.38;;;19.30;99.90;;;;;;5004469;28;20512;-82
2023/07/15 01:46:49;;;;;;;8.52;3.22;;;19.30;99.90;;;;;;5024789;28;20047;-82
2023/07/15 01:49:15;;;;;;;11.32;3.60;;;19.30;99.90;;;;;;5006895;27;20052;-82
2023/07/15 01:51:40;;;;;;;9.82;3.50;;;19.30;99.90;;;;;;5021665;28;20041;-82
2023/07/15 01:54:06;;;;;;;8.55;3.58;;;19.30;99.90;;;;;;5041875;28;20289;-82
2023/07/15 01:56:32;;;;;;;8.70;3.25;;;19.40;99.90;;;;;;5019372;28;20521;-82
2023/07/15 01:58:58;;;;;;;9.57;3.20;;;19.40;99.90;;;;;;4976595;28;20068;-82
2023/07/15 02:01:23;;;;;;;9.75;3.17;;;19.40;99.90;;;;;;4977061;28;20044;-82
2023/07/15 02:03:50;;;;;;;9.75;3.53;;;19.50;99.90;;;;;;5020605;27;20064;-82
2023/07/15 02:06:15;;;;;;;8.75;3.40;;;19.50;99.90;;;;;;5022402;27;20033;-81
2023/07/15 02:08:41;;;;;;;10.88;3.45;;;19.50;99.90;;;;;;5020884;28;20324;-81
2023/07/15 02:11:07;;;;;;;9.50;3.30;;;19.50;99.90;;;;;;5021097;28;20037;-82
2023/07/15 02:13:33;;;;;;;9.15;3.10;;;19.60;99.90;;;;;;5007633;28;20124;-82
2023/07/15 02:15:59;;;;;;;9.52;3.30;;;19.50;99.90;;;;;;5003001;28;20041;-81
2023/07/15 02:18:25;;;;;;;9.32;3.33;;;19.50;99.90;;;;;;5066157;28;20479;-81
2023/07/15 02:20:52;;;;;;;7.53;3.08;;;19.50;99.90;;;;;;5044479;28;20034;-81
2023/07/15 02:23:17;;;;;;;8.45;3.00;;;19.50;99.90;;;;;;5004177;28;20053;-81
2023/07/15 02:25:43;;;;;;;8.75;3.30;;;19.60;99.90;;;;;;4992168;28;20047;-82
2023/07/15 02:28:09;;;;;;;8.85;2.97;;;19.50;99.90;;;;;;5019328;28;20045;-82
2023/07/15 02:30:34;;;;;;;8.82;3.03;;;19.60;99.90;;;;;;4990373;28;20041;-82
2023/07/15 02:33:01;;;;;;;9.60;3.38;;;19.60;99.90;;;;;;4991212;28;20041;-81
2023/07/15 02:35:27;;;;;;;9.63;2.88;;;19.60;99.90;;;;;;5007864;28;20045;-82
2023/07/15 02:37:55;;;;;;;8.20;2.90;;;19.60;99.90;;;;;;5009664;28;20073;-81
2023/07/15 02:40:21;;;;;;;8.77;3.13;;;19.60;99.90;;;;;;5003132;28;20045;-81
2023/07/15 02:42:47;;;;;;;8.63;2.90;;;19.60;99.90;;;;;;5022639;28;20029;-82
2023/07/15 02:45:15;;;;;;;8.13;3.00;;;19.50;99.90;;;;;;4990441;28;20098;-82
2023/07/15 02:47:41;;;;;;;10.25;3.20;;;19.50;99.90;;;;;;5007518;28;20287;-81
2023/07/15 02:50:08;;;;;;;8.55;3.08;;;19.50;99.90;;;;;;5006574;28;20287;-82
2023/07/15 02:52:35;;;;;;;9.25;3.10;;;19.50;99.90;;;;;;4990175;28;20046;-81
2023/07/15 02:55:03;;;;;;;8.25;2.90;;;19.50;99.90;;;;;;5020105;28;20089;-81
2023/07/15 02:57:29;;;;;;;9.70;3.00;;;19.50;99.90;;;;;;5004492;28;20040;-81
2023/07/15 02:59:55;;;;;;;9.77;3.13;;;19.50;99.90;;;;;;5018453;27;20037;-81
2023/07/15 03:02:22;;;;;;;9.00;2.80;;;19.50;99.90;;;;;;5025504;27;20213;-81
2023/07/15 03:04:48;;;;;;;9.88;3.08;;;19.50;99.90;;;;;;5006094;28;20133;-81
2023/07/15 03:07:15;;;;;;;11.27;3.13;;;19.50;99.90;;;;;;5006616;28;20044;-81
2023/07/15 03:09:41;;;;;;;9.10;3.10;;;19.50;99.90;;;;;;5010597;28;20036;-81
2023/07/15 03:12:10;;;;;;;9.05;2.92;;;19.40;99.90;;;;;;5013840;28;20081;-81
2023/07/15 03:14:36;;;;;;;8.57;3.03;;;19.40;99.90;;;;;;5021158;27;20037;-81
2023/07/15 03:17:02;;;;;;;9.07;2.92;;;19.40;99.90;;;;;;5021737;28;20048;-81
2023/07/15 03:19:30;;;;;;;7.75;2.83;;;19.40;99.90;;;;;;5018933;28;20040;-81
2023/07/15 03:21:57;;;;;;;11.15;2.80;;;19.40;99.90;;;;;;5022518;28;20117;-81
2023/07/15 03:24:24;;;;;;;10.10;2.80;;;19.50;99.90;;;;;;4990413;28;20041;-82
2023/07/15 03:26:51;;;;;;;7.68;2.65;;;19.40;99.90;;;;;;5022809;28;20488;-81
2023/07/15 03:29:16;;;;;;;9.43;3.05;;;19.40;99.90;;;;;;5020760;28;20569;-82
2023/07/15 03:31:42;;;;;;;9.15;3.00;;;19.50;99.90;;;;;;5003324;28;20051;-81
2023/07/15 03:34:08;;;;;;;7.53;2.53;;;19.50;99.90;;;;;;5007865;28;20482;-81
2023/07/15 03:36:34;;;;;;;8.27;2.60;;;19.50;99.90;;;;;;5020096;28;20053;-81
2023/07/15 03:38:59;;;;;;;10.77;2.90;;;19.50;99.90;;;;;;5007226;28;20033;-82
2023/07/15 03:41:25;;;;;;;8.07;2.78;;;19.50;99.90;;;;;;4985850;28;20381;-81
2023/07/15 03:43:51;;;;;;;9.68;3.03;;;19.50;99.90;;;;;;5006585;27;20033;-81
2023/07/15 03:46:17;;;;;;;9.30;2.65;;;19.50;99.90;;;;;;4988945;28;20101;-81
2023/07/15 03:48:42;;;;;;;10.25;3.00;;;19.50;99.90;;;;;;5023953;28;20033;-82
2023/07/15 03:51:08;;;;;;;7.50;2.40;;;19.50;99.90;;;;;;5003939;28;20052;-82
2023/07/15 03:53:34;;;;;;;8.20;2.85;;;19.50;99.90;;;;;;4989726;28;20029;-82
2023/07/15 03:56:00;;;;;;;8.77;2.63;;;19.50;99.90;;;;;;5019238;28;20044;-82
2023/07/15 03:58:26;;;;;;;10.10;2.83;;;19.50;99.90;;;;;;5015851;28;20041;-81
2023/07/15 04:00:52;;;;;;;7.57;2.70;;;19.60;99.90;;;;;;5005061;28;20127;-82
2023/07/15 04:03:18;;;;;;;9.35;3.05;;;19.60;99.90;;;;;;5008448;28;20052;-81
2023/07/15 04:05:44;;;;;;;9.80;2.90;;;19.60;99.90;;;;;;5003791;28;20072;-81
2023/07/15 04:08:11;;;;;;;7.57;2.70;;;19.60;99.90;;;;;;5022577;27;20064;-81
2023/07/15 04:10:36;;;;;;;9.27;2.60;;;19.60;99.90;;;;;;5020210;27;20406;-81
2023/07/15 04:13:02;;;;;;;8.95;2.50;;;19.70;99.90;;;;;;4989398;28;20047;-81
2023/07/15 04:15:30;;;;;;;8.57;2.78;;;19.70;99.90;;;;;;5008026;28;20044;-82
2023/07/15 04:17:56;;;;;;;9.18;2.65;;;19.70;99.90;;;;;;5027193;28;20335;-81
2023/07/15 04:20:21;;;;;;;7.82;2.90;;;19.70;99.90;;;;;;5039768;28;20041;-81
2023/07/15 04:22:47;;;;;;;9.98;2.80;;;19.70;99.90;;;;;;5002355;28;20033;-81
2023/07/15 04:25:14;;;;;;;7.82;2.80;;;19.70;99.90;;;;;;5020864;28;20065;-82
2023/07/15 04:27:40;;;;;;;7.53;2.55;;;19.70;99.90;;;;;;4974443;28;20037;-82
2023/07/15 04:30:08;;;;;;;8.05;2.80;;;19.80;99.90;;;;;;5019042;28;20041;-82
2023/07/15 04:32:34;;;;;;;8.07;2.55;;;19.80;99.90;;;;;;5086863;28;20052;-82
2023/07/15 04:35:01;;;;;;;8.95;2.80;;;19.80;99.90;;;;;;5005228;28;20045;-82
2023/07/15 04:37:27;;;;;;;9.13;2.72;;;19.90;99.90;;;;;;5004896;28;20052;-81
2023/07/15 04:39:53;;;;;;;9.30;2.78;;;19.90;99.90;;;;;;5019301;28;20037;-82
2023/07/15 04:42:19;;;;;;;7.90;2.70;;;19.90;99.90;;;;;;5004428;28;20041;-81
2023/07/15 04:44:44;;;;;;;9.63;2.55;;;20.00;99.90;;;;;;4981948;27;20072;-81
2023/07/15 04:47:10;;;;;;;8.85;2.80;;;20.00;99.90;;;;;;5004520;28;20033;-82
2023/07/15 04:49:36;;;;;;;10.15;2.78;;;20.10;99.90;;;;;;5023774;28;20068;-81
2023/07/15 04:52:02;;;;;;;8.55;2.70;;;20.10;99.90;;;;;;5026797;28;20086;-81
2023/07/15 04:54:28;;;;;;;7.20;2.72;;;20.10;99.90;;;;;;5003277;28;20049;-82
2023/07/15 04:56:54;;;;;;;9.10;2.70;;;20.20;99.90;;;;;;5053342;27;20584;-82
2023/07/15 04:59:19;;;;;;;7.18;2.65;;;20.20;99.90;;;;;;4987894;28;20033;-81
2023/07/15 05:01:45;;;;;;;7.60;2.72;;;20.20;99.90;;;;;;4995394;28;20026;-81
2023/07/15 05:04:11;;;;;;;9.38;2.65;;;20.30;99.90;;;;;;5012155;27;20424;-81
2023/07/15 05:06:37;;;;;;;9.07;2.70;;;20.40;99.90;;;;;;5012760;28;20076;-81
2023/07/15 05:09:04;;;;;;;8.82;2.70;;;20.50;99.90;;;;;;5021733;28;20033;-81
2023/07/15 05:11:30;;;;;;;10.52;2.90;;;20.50;99.90;;;;;;5021105;28;20490;-82
2023/07/15 05:13:56;;;;;;;8.20;2.55;;;20.50;99.90;;;;;;5041957;27;20091;-82
2023/07/15 05:16:22;;;;;;;7.97;2.90;;;20.50;99.90;;;;;;5029776;28;20048;-81
2023/07/15 05:18:47;;;;;;;10.00;3.03;;;20.60;99.90;;;;;;5017733;28;20038;-82
2023/07/15 05:21:14;;;;;;;9.02;2.70;;;20.60;99.90;;;;;;5008288;28;20539;-82
2023/07/15 05:23:40;;;;;;;8.27;3.15;;;20.60;99.90;;;;;;5005051;28;20490;-82
2023/07/15 05:26:05;;;;;;;7.70;2.60;;;20.70;99.90;;;;;;5037728;27;20037;-81
2023/07/15 05:28:32;;;;;;;9.77;2.80;;;20.70;99.90;;;;;;5019738;28;20041;-82
2023/07/15 05:31:02;;;;;;;7.65;2.67;;;20.70;99.90;;;;;;5054884;28;20048;-82
2023/07/15 05:33:28;;;;;;;6.50;2.50;;;20.80;99.90;;;;;;5018145;28;20048;-82
2023/07/15 05:35:55;;;;;;;8.27;2.78;;;20.80;99.90;;;;;;5002698;28;20089;-81
2023/07/15 05:38:26;;;;;;;8.48;2.55;;;20.80;99.90;;;;;;4992597;28;20587;-81
2023/07/15 05:40:52;;;;;;;8.45;2.60;;;21.60;99.90;;;;;;4977289;27;20133;-82
2023/07/15 05:43:19;;;;;;;7.97;2.60;;;21.00;99.90;;;;;;5018000;28;20448;-82
2023/07/15 05:45:45;;;;;;;7.30;2.45;;;21.00;99.90;;;;;;5000571;28;20124;-82
2023/07/15 05:48:11;;;;;;;8.40;2.88;;;21.10;99.90;;;;;;4999595;28;20037;-82
2023/07/15 05:50:38;;;;;;;7.53;2.70;;;21.10;99.90;;;;;;4997268;28;20042;-82
2023/07/15 05:53:04;;;;;;;8.88;2.70;;;21.20;99.90;;;;;;5017825;28;20068;-82
2023/07/15 05:55:34;;;;;;;10.52;2.90;;;21.20;99.90;;;;;;4992384;28;20057;-82
2023/07/15 05:58:01;;;;;;;10.20;2.78;;;21.40;99.90;;;;;;5005843;28;20054;-82
2023/07/15 06:00:30;;;;;;;7.32;2.47;;;21.30;99.90;;;;;;4997155;28;20517;-82
2023/07/15 06:02:55;;;;;;;9.07;2.90;;;21.40;99.90;;;;;;5004400;28;20037;-82
2023/07/15 06:05:21;;;;;;;7.30;2.63;;;21.50;99.90;;;;;;5088877;27;20047;-82
2023/07/15 06:07:48;;;;;;;8.35;2.70;;;21.50;99.90;;;;;;5055520;27;20112;-82
2023/07/15 06:10:15;;;;;;;8.32;2.80;;;21.60;99.90;;;;;;5106419;27;20140;-82
2023/07/15 06:12:42;;;;;;;8.65;2.95;;;21.70;99.90;;;;;;5104594;27;20066;-82
2023/07/15 06:15:08;;;;;;;8.93;3.00;;;21.70;99.90;;;;;;5079536;27;20489;-82
2023/07/15 06:17:34;;;;;;;8.40;2.72;;;21.80;99.90;;;;;;5083881;27;20046;-82
2023/07/15 06:20:00;;;;;;;8.15;2.83;;;21.80;99.90;;;;;;5091458;27;20047;-82
2023/07/15 06:22:25;;;;;;;9.52;3.08;;;21.90;99.90;;;;;;5090853;27;20035;-82
2023/07/15 06:24:51;;;;;;;9.02;2.78;;;22.00;99.90;;;;;;5084630;27;20503;-82
2023/07/15 06:27:17;;;;;;;8.18;2.65;;;22.00;99.90;;;;;;5070918;27;20386;-82
2023/07/15 06:29:45;;;;;;;9.25;2.55;;;22.10;99.90;;;;;;5098064;27;20047;-83
2023/07/15 06:32:10;;;;;;;8.68;2.78;;;22.20;99.90;;;;;;5088720;27;20127;-82
2023/07/15 06:34:36;;;;;;;9.13;2.63;;;22.30;99.90;;;;;;5104776;27;20130;-82
2023/07/15 06:37:02;;;;;;;8.15;2.70;;;22.40;99.90;;;;;;5086043;27;20166;-84
2023/07/15 06:39:28;;;;;;;6.82;2.53;;;22.50;99.90;;;;;;5104410;27;20500;-82
2023/07/15 06:41:53;;;;;;;8.13;2.70;;;22.60;99.90;;;;;;5046708;27;20032;-82
2023/07/15 06:44:19;;;;;;;10.27;2.80;;;22.70;99.90;;;;;;5080267;27;20554;-82
2023/07/15 06:46:45;;;;;;;8.18;2.78;;;22.60;99.90;;;;;;5072528;27;20039;-82
2023/07/15 06:49:10;;;;;;;9.32;2.72;;;22.60;99.90;;;;;;5103716;27;20087;-82
2023/07/15 06:51:36;;;;;;;7.78;2.55;;;22.60;99.90;;;;;;5089948;27;20034;-82
2023/07/15 06:54:02;;;;;;;6.75;2.40;;;22.60;99.90;;;;;;5073670;27;20065;-81
2023/07/15 06:56:28;;;;;;;8.05;2.55;;;22.60;99.90;;;;;;4991558;28;20052;-81
2023/07/15 06:58:54;;;;;;;10.50;2.83;;;22.70;99.90;;;;;;5016296;28;20385;-81
2023/07/15 07:01:20;;;;;;;8.80;2.67;;;22.70;99.90;;;;;;5003040;28;20041;-81
2023/07/15 07:03:46;;;;;;;9.43;2.70;;;22.80;99.90;;;;;;5020979;27;20037;-81
2023/07/15 07:06:11;;;;;;;8.07;2.33;;;22.90;99.90;;;;;;5022082;27;20116;-81
2023/07/15 07:08:37;;;;;;;7.97;2.40;;;23.00;99.90;;;;;;5005217;27;20494;-82
2023/07/15 07:11:03;;;;;;;7.22;2.40;;;23.10;99.90;;;;;;5009314;28;20140;-82
2023/07/15 07:13:29;;;;;;;9.35;2.50;;;23.10;99.90;;;;;;5009883;28;20506;-82
2023/07/15 07:15:59;;;;;;;6.88;2.47;;;23.10;99.90;;;;;;4994809;28;20041;-81
2023/07/15 07:18:25;;;;;;;6.63;2.35;;;23.30;99.90;;;;;;5022969;28;20153;-82
2023/07/15 07:21:01;;;;;;;9.43;2.70;;;23.50;99.90;;;;;;5020232;28;20076;-82
2023/07/15 07:23:27;;;;;;;7.25;2.50;;;23.60;99.90;;;;;;5003146;28;20072;-82
2023/07/15 07:25:54;;;;;;;10.38;2.78;;;23.70;99.90;;;;;;5017699;28;20490;-82
2023/07/15 07:28:23;;;;;;;6.82;2.30;;;23.80;99.90;;;;;;5014456;27;20483;-82
2023/07/15 07:30:49;;;;;;;7.55;2.30;;;23.90;99.90;;;;;;5021672;28;20041;-83
2023/07/15 07:33:15;;;;;;;10.73;2.50;;;23.90;99.90;;;;;;5005089;28;20033;-82
2023/07/15 07:35:44;;;;;;;7.47;2.13;;;24.00;99.90;;;;;;5010570;28;20414;-82
2023/07/15 07:38:10;;;;;;;7.53;2.47;;;23.90;99.90;;;;;;5014025;28;20045;-81
2023/07/15 07:40:35;;;;;;;7.05;2.30;;;24.00;99.90;;;;;;5020252;28;20032;-82
2023/07/15 07:43:01;;;;;;;7.32;2.42;;;24.00;99.90;;;;;;5003861;28;20116;-82
2023/07/15 07:45:27;;;;;;;7.80;2.25;;;23.90;99.90;;;;;;5014391;28;20033;-82
2023/07/15 07:47:52;;;;;;;7.15;2.20;;;23.90;99.90;;;;;;5005233;28;20141;-82
2023/07/15 07:50:18;;;;;;;8.40;2.40;;;23.90;99.90;;;;;;5018827;28;20529;-82
2023/07/15 07:52:44;;;;;;;6.97;2.30;;;24.00;99.90;;;;;;4988817;28;20041;-82
2023/07/15 07:55:10;;;;;;;6.40;2.30;;;;;;;;;;5016462;28;20136;-83
2023/07/15 07:57:36;;;;;;;6.25;2.05;;;24.10;99.90;;;;;;5022654;28;20041;-82
2023/07/15 08:00:02;;;;;;;6.15;2.08;;;24.20;99.90;;;;;;4993646;28;20044;-81
2023/07/15 08:02:28;;;;;;;7.70;2.40;;;24.30;99.90;;;;;;5008128;28;20444;-82
2023/07/15 08:04:54;;;;;;;6.45;2.00;;;24.40;99.90;;;;;;5021157;28;20040;-81
2023/07/15 08:07:19;;;;;;;7.15;2.17;;;24.50;99.90;;;;;;5016919;28;20098;-82
2023/07/15 08:09:45;;;;;;;7.07;2.15;;;24.50;99.90;;;;;;5005347;28;20033;-81
2023/07/15 08:12:11;;;;;;;6.50;2.17;;;24.60;99.90;;;;;;5001811;28;20068;-81
2023/07/15 08:14:36;;;;;;;6.18;2.00;;;24.60;99.90;;;;;;5014164;28;20041;-82
2023/07/15 08:17:02;;;;;;;7.93;2.05;;;24.60;99.90;;;;;;5020289;28;20041;-82
2023/07/15 08:19:28;;;;;;;7.13;2.10;;;24.60;99.90;;;;;;5027711;27;20442;-81
2023/07/15 08:21:54;;;;;;;8.65;2.13;;;24.50;99.90;;;;;;5007816;28;20568;-82
2023/07/15 08:24:19;;;;;;;8.02;2.03;;;24.40;99.90;;;;;;5008465;27;20032;-82
2023/07/15 08:26:45;;;;;;;4.95;1.77;;;24.40;99.90;;;;;;5023761;27;20052;-83
2023/07/15 08:29:11;;;;;;;6.28;2.20;;;24.30;99.90;;;;;;5012800;27;20410;-83
2023/07/15 08:31:37;;;;;;;6.25;2.03;;;24.20;99.90;;;;;;5010002;27;20033;-82
2023/07/15 08:34:05;;;;;;;6.13;2.30;;;24.10;99.90;;;;;;5030538;27;20432;-84
2023/07/15 08:36:31;;;;;;;6.55;2.10;;;24.20;99.90;;;;;;4990714;28;20429;-83
2023/07/15 08:38:57;;;;;;;7.55;2.13;;;23.90;99.90;;;;;;5021282;28;20045;-84
2023/07/15 08:41:26;;;;;;;7.88;2.22;;;25.00;99.90;;;;;;4998668;28;20034;-84
2023/07/15 08:43:52;;;;;;;9.10;2.30;;;24.50;99.90;;;;;;5011025;28;20041;-83
2023/07/15 08:46:26;;;;;;;8.02;2.30;;;24.70;99.90;;;;;;5014692;28;20060;-83
2023/07/15 08:48:56;;;;;;;10.00;2.20;;;24.70;99.90;;;;;;4999114;28;20045;-83
2023/07/15 08:51:50;;;;;;;8.93;2.35;;;24.90;99.90;;;;;;5012166;28;20057;-83
2023/07/15 08:54:16;;;;;;;5.53;1.92;;;25.10;99.90;;;;;;4992727;28;20629;-84
2023/07/15 08:56:42;;;;;;;6.65;2.20;;;25.20;99.90;;;;;;5002714;28;20101;-83
2023/07/15 08:59:07;;;;;;;7.28;2.25;;;25.20;99.90;;;;;;4997142;28;20124;-84
2023/07/15 09:01:36;;;;;;;6.13;2.20;;;25.10;99.90;;;;;;5022822;28;20123;-84
2023/07/15 09:04:02;;;;;;;5.88;2.00;;;24.20;99.90;;;;;;5018214;28;20052;-83
2023/07/15 09:06:28;;;;;;;6.72;1.98;;;25.20;99.90;;;;;;4992795;28;20486;-84
2023/07/15 09:08:55;;;;;;;5.18;1.90;;;25.40;99.90;;;;;;4998354;28;20037;-84
2023/07/15 09:11:21;;;;;;;5.07;1.90;;;25.50;99.90;;;;;;5011269;28;20773;-84
2023/07/15 09:13:46;;;;;;;5.78;1.90;;;25.40;99.90;;;;;;5007496;28;20040;-83
2023/07/15 09:16:13;;;;;;;4.10;1.60;;;25.10;99.90;;;;;;5014863;28;20266;-83
2023/07/15 09:18:40;;;;;;;4.00;1.65;;;25.10;99.90;;;;;;5014547;28;20047;-84
2023/07/15 09:21:16;;;;;;;4.15;1.70;;;25.00;99.90;;;;;;5014645;28;20033;-84
2023/07/15 09:23:44;;;;;;;4.55;1.58;;;25.00;99.90;;;;;;5011234;28;20057;-84
2023/07/15 09:26:12;;;;;;;4.95;1.70;;;25.10;99.90;;;;;;5023684;28;20045;-83
2023/07/15 09:28:40;;;;;;;8.93;1.98;;;25.30;99.90;;;;;;5025858;28;20048;-84
2023/07/15 09:31:07;;;;;;;4.97;1.70;;;25.20;99.90;;;;;;5030782;28;20044;-84
2023/07/15 09:33:39;;;;;;;4.80;1.90;;;25.10;99.90;;;;;;4995430;28;20044;-83
2023/07/15 09:36:05;;;;;;;6.38;1.80;;;25.10;99.90;;;;;;5019390;28;20579;-84
2023/07/15 09:38:32;;;;;;;4.00;1.60;;;25.10;99.90;;;;;;5026472;28;20381;-84
2023/07/15 09:41:00;;;;;;;5.28;1.88;;;25.10;99.90;;;;;;5008606;28;20056;-84
2023/07/15 09:43:48;;;;;;;6.80;1.90;;;25.60;99.90;;;;;;5012018;28;20495;-84
2023/07/15 09:46:16;;;;;;;5.78;1.80;;;25.30;99.90;;;;;;5030571;28;20041;-84
2023/07/15 09:48:45;;;;;;;5.88;1.92;;;25.60;99.90;;;;;;5027287;28;20044;-84
2023/07/15 09:51:13;;;;;;;6.10;1.98;;;25.60;99.90;;;;;;5008417;28;20106;-84
2023/07/15 09:53:45;;;;;;;5.53;2.10;;;25.50;99.90;;;;;;4995502;28;20037;-83
2023/07/15 09:56:13;;;;;;;5.85;1.88;;;25.50;99.90;;;;;;5016573;28;20041;-82
2023/07/15 09:58:45;;;;;;;7.88;2.75;;;25.40;99.90;;;;;;5014545;28;20120;-81
2023/07/15 10:01:17;;;;;;;6.47;1.90;;;25.40;99.90;;;;;;5082825;28;20029;-82
2023/07/15 10:03:51;;;;;;;6.40;2.20;;;25.30;99.90;;;;;;5002852;28;20053;-82
2023/07/15 10:06:17;;;;;;;6.95;2.08;;;25.70;99.90;;;;;;5011398;27;20038;-81
2023/07/15 10:08:43;;;;;;;7.80;2.17;;;25.90;99.90;;;;;;5020100;28;20453;-81
2023/07/15 10:11:09;;;;;;;6.13;2.20;;;25.90;99.90;;;;;;5008063;27;20045;-81
2023/07/15 10:13:36;;;;;;;5.93;2.15;;;25.90;99.90;;;;;;5020470;28;20046;-82
2023/07/15 10:16:02;;;;;;;7.60;2.40;;;26.00;99.90;;;;;;5006083;28;20041;-82
2023/07/15 10:18:31;;;;;;;7.00;2.28;;;26.10;99.90;;;;;;5020058;27;20027;-82
2023/07/15 10:21:01;;;;;;;5.15;2.08;;;26.00;99.90;;;;;;5013325;27;20040;-82
2023/07/15 10:23:29;;;;;;;7.05;2.20;;;26.20;99.90;;;;;;5006666;28;20389;-82
2023/07/15 10:26:06;;;;;;;7.22;2.28;;;26.20;99.90;;;;;;5019783;27;20039;-82
2023/07/15 10:28:40;;;;;;;6.85;2.15;;;26.20;99.90;;;;;;4999810;28;20048;-82
2023/07/15 10:31:16;;;;;;;6.55;2.20;;;26.00;99.90;;;;;;5016118;27;20052;-83
2023/07/15 10:33:55;;;;;;;6.80;2.40;;;26.00;99.90;;;;;;5040889;27;20035;-82
2023/07/15 10:36:36;;;;;;;6.63;2.40;;;26.10;99.90;;;;;;5021655;28;20052;-82
2023/07/15 10:39:12;;;;;;;6.15;2.30;;;26.10;99.90;;;;;;5024258;27;20114;-82
2023/07/15 10:41:43;;;;;;;9.80;2.55;;;26.10;99.90;;;;;;4999940;28;20052;-82
2023/07/15 10:44:15;;;;;;;7.45;2.50;;;26.00;99.90;;;;;;4988764;28;20116;-82
2023/07/15 10:46:43;;;;;;;;;;;26.10;99.90;;;;;;4991208;28;20038;-82
2023/07/15 10:49:09;;;;;;;6.72;2.00;;;26.40;99.90;;;;;;5021958;28;20344;-82
2023/07/15 10:51:35;;;;;;;9.57;2.22;;;26.40;99.90;;;;;;4999886;28;20123;-81
2023/07/15 10:54:01;;;;;;;7.03;2.38;;;29.00;99.90;;;;;;5012868;27;20073;-83
2023/07/15 10:56:27;;;;;;;6.72;2.20;;;26.90;99.90;;;;;;5000852;28;20044;-83
2023/07/15 10:58:56;;;;;;;4.93;2.00;;;27.00;99.90;;;;;;5000334;28;20060;-82
2023/07/15 11:01:22;;;;;;;9.10;2.40;;;26.80;99.90;;;;;;5015378;28;20043;-82
2023/07/15 11:03:48;;;;;;;11.75;2.97;;;26.60;99.90;;;;;;5019920;28;20033;-82
2023/07/15 11:06:14;;;;;;;9.73;2.47;;;26.50;99.90;;;;;;5024905;28;20033;-83
2023/07/15 11:08:40;;;;;;;8.35;2.30;;;26.30;99.90;;;;;;5004118;28;20043;-82
2023/07/15 11:11:10;;;;;;;5.28;2.00;;;26.20;99.90;;;;;;5012756;28;20072;-83
2023/07/15 11:13:37;;;;;;;6.10;2.20;;;26.20;99.90;;;;;;5011935;28;20119;-82
2023/07/15 11:16:03;;;;;;;4.15;1.92;;;26.10;99.90;;;;;;5009037;28;20214;-82
2023/07/15 11:18:30;;;;;;;5.95;1.95;;;26.20;99.90;;;;;;5025821;28;20059;-83
2023/07/15 11:20:57;;;;;;;6.40;2.30;;;26.20;99.90;;;;;;5029743;27;20049;-82
2023/07/15 11:23:24;;;;;;;6.03;2.05;;;26.20;99.90;;;;;;5010854;28;20405;-82
2023/07/15 11:25:50;;;;;;;7.03;2.10;;;26.20;99.90;;;;;;4995164;28;20064;-82
2023/07/15 11:28:19;;;;;;;4.78;1.80;;;26.10;99.90;;;;;;4996642;28;20110;-81
2023/07/15 11:30:48;;;;;;;7.13;2.00;;;26.10;99.90;;;;;;5010963;28;20045;-82
2023/07/15 11:33:15;;;;;;;6.82;1.90;;;26.10;99.90;;;;;;5027031;28;20042;-82
2023/07/15 11:35:42;;;;;;;5.60;1.73;;;26.00;99.90;;;;;;5006730;28;20044;-81
2023/07/15 11:38:13;;;;;;;7.45;1.90;;;26.10;99.90;;;;;;5012476;28;20052;-82
2023/07/15 11:41:11;;;;;;;5.97;1.95;;;26.20;99.90;;;;;;5014723;28;20041;-82
2023/07/15 11:43:37;;;;;;;5.50;1.90;;;26.20;99.90;;;;;;4975961;28;20383;-82
2023/07/15 11:46:03;;;;;;;5.07;1.90;;;26.10;99.90;;;;;;5015560;27;20116;-82
2023/07/15 11:48:33;;;;;;;6.90;1.90;;;26.10;99.90;;;;;;4990625;28;20040;-82
2023/07/15 11:51:05;;;;;;;6.13;1.80;;;26.20;99.90;;;;;;5022211;28;20049;-82
2023/07/15 11:53:38;;;;;;;5.90;1.60;;;26.10;99.90;;;;;;5039424;28;20056;-82
2023/07/15 11:56:08;;;;;;;3.17;1.50;;;26.00;99.90;;;;;;5024378;28;20057;-80
2023/07/15 11:58:46;;;;;;;5.03;1.80;;;25.90;99.90;;;;;;5010639;28;20095;-81
2023/07/15 12:01:17;;;;;;;6.95;1.88;;;25.90;99.90;;;;;;5008324;28;20070;-80
2023/07/15 12:03:44;;;;;;;4.80;1.70;;;25.90;99.90;;;;;;5025760;28;20037;-80
2023/07/15 12:06:23;;;;;;;7.05;1.90;;;25.80;99.90;;;;;;5008914;28;20120;-81
2023/07/15 12:09:02;;;;;;;4.35;1.60;;;25.80;99.90;;;;;;5020121;28;20115;-81
2023/07/15 12:11:29;;;;;;;5.55;1.85;;;25.90;99.90;;;;;;5004587;28;20789;-80
2023/07/15 12:13:55;;;;;;;5.20;1.85;;;;;;;;;;4988680;28;20202;-79
2023/07/15 12:16:24;;;;;;;6.00;1.90;;;25.90;99.90;;;;;;5019817;28;20059;-81
2023/07/15 12:18:50;;;;;;;8.95;2.63;;;25.90;99.90;;;;;;5008980;28;20049;-80
2023/07/15 12:21:16;;;;;;;5.57;1.80;;;25.50;99.90;;;;;;5016397;28;20404;-80
2023/07/15 12:23:43;;;;;;;6.07;1.98;;;26.00;99.90;;;;;;5009942;28;20101;-80
2023/07/15 12:26:09;;;;;;;5.95;2.05;;;26.10;99.90;;;;;;5006543;28;20043;-79
2023/07/15 12:28:34;;;;;;;7.57;1.90;;;26.20;99.90;;;;;;5017096;27;20126;-79
2023/07/15 12:31:01;;;;;;;5.45;1.80;;;26.20;99.90;;;;;;5023513;28;20037;-80
2023/07/15 12:33:27;;;;;;;7.47;2.00;;;26.20;99.90;;;;;;5024790;28;20663;-80
2023/07/15 12:35:53;;;;;;;6.75;2.33;;;26.20;99.90;;;;;;5029567;28;20120;-80
2023/07/15 12:38:19;;;;;;;6.75;2.00;;;26.90;99.90;;;;;;5029195;28;20037;-82
2023/07/15 12:40:45;;;;;;;6.60;2.13;;;26.70;99.90;;;;;;4995440;28;20033;-83
2023/07/15 12:43:11;;;;;;;6.43;2.10;;;27.10;99.90;;;;;;5020960;27;20158;-81
2023/07/15 12:45:37;;;;;;;6.75;2.00;;;27.30;99.90;;;;;;5004208;28;20454;-82